createdAt,value
2018-07-13T00:01:00.020Z,4.00
2018-07-13T00:03:31.611Z,4.80
2018-07-13T00:06:03.077Z,5.83
2018-07-13T00:08:34.349Z,4.67
2018-07-13T00:11:05.639Z,5.33
2018-07-13T00:13:45.990Z,5.50
2018-07-13T00:16:17.476Z,5.33
2018-07-13T00:18:49.077Z,6.27
2018-07-13T00:21:19.628Z,4.93
2018-07-13T00:23:50.898Z,6.30
2018-07-13T00:26:22.041Z,5.30
2018-07-13T00:28:52.607Z,5.53
2018-07-13T00:31:23.501Z,6.60
2018-07-13T00:33:55.009Z,6.10
2018-07-13T00:36:25.849Z,6.60
2018-07-13T00:38:57.183Z,6.40
2018-07-13T00:41:28.547Z,5.87
2018-07-13T00:43:59.954Z,6.50
2018-07-13T00:46:30.486Z,6.43
2018-07-13T00:49:01.170Z,5.73
2018-07-13T00:51:32.340Z,5.93
2018-07-13T00:54:03.336Z,6.30
2018-07-13T00:56:34.480Z,7.03
2018-07-13T00:59:10.672Z,6.10
2018-07-13T01:01:41.227Z,5.83
2018-07-13T01:04:12.711Z,7.17
2018-07-13T01:06:44.218Z,7.30
2018-07-13T01:09:15.358Z,7.30
2018-07-13T01:11:46.404Z,7.33
2018-07-13T01:14:17.620Z,6.40
2018-07-13T01:16:49.076Z,7.33
2018-07-13T01:19:21.107Z,6.30
2018-07-13T01:21:52.439Z,6.40
2018-07-13T01:24:23.329Z,7.67
2018-07-13T01:26:54.057Z,7.47
2018-07-13T01:29:24.433Z,6.67
2018-07-13T01:31:54.085Z,8.13
2018-07-13T01:34:25.094Z,6.90
2018-07-13T01:36:55.823Z,7.93
2018-07-13T01:39:26.631Z,7.20
2018-07-13T01:41:58.135Z,7.20
2018-07-13T01:44:28.673Z,6.90
2018-07-13T01:46:59.467Z,6.90
2018-07-13T01:49:30.279Z,7.47
2018-07-13T01:52:00.991Z,8.43
2018-07-13T01:54:32.419Z,9.33
2018-07-13T01:57:03.721Z,8.27
2018-07-13T01:59:35.014Z,7.30
2018-07-13T02:02:09.584Z,5.80
2018-07-13T02:04:40.212Z,8.40
2018-07-13T02:07:16.269Z,5.73
2018-07-13T02:09:54.171Z,9.20
2018-07-13T02:12:25.034Z,6.53
2018-07-13T02:14:55.832Z,6.57
2018-07-13T02:17:26.735Z,6.20
2018-07-13T02:19:58.095Z,6.40
2018-07-13T02:22:59.239Z,7.60
2018-07-13T02:25:30.862Z,7.70
2018-07-13T02:28:02.126Z,7.60
2018-07-13T02:30:31.590Z,8.80
2018-07-13T02:33:03.071Z,8.57
2018-07-13T02:35:35.364Z,10.90
2018-07-13T02:38:37.503Z,12.10
2018-07-13T02:41:08.845Z,9.97
2018-07-13T02:43:39.795Z,10.60
2018-07-13T02:46:10.971Z,8.73
2018-07-13T02:48:41.516Z,7.93
2018-07-13T02:51:12.814Z,8.00
2018-07-13T02:53:43.968Z,8.63
2018-07-13T02:56:15.510Z,8.63
2018-07-13T02:58:47.105Z,8.13
2018-07-13T03:01:15.810Z,9.67
2018-07-13T03:03:44.286Z,7.73
2018-07-13T03:06:12.753Z,9.03
2018-07-13T03:08:41.237Z,11.73
2018-07-13T03:11:09.673Z,7.93
2018-07-13T03:13:38.199Z,8.20
2018-07-13T03:16:06.628Z,9.03
2018-07-13T03:18:35.179Z,8.13
2018-07-13T03:21:03.758Z,7.83
2018-07-13T03:23:32.224Z,10.90
2018-07-13T03:26:00.730Z,12.13
2018-07-13T03:28:29.149Z,9.07
2018-07-13T03:30:57.697Z,9.27
2018-07-13T03:33:26.113Z,7.70
2018-07-13T03:35:54.541Z,12.27
2018-07-13T03:38:23.159Z,10.07
2018-07-13T03:40:51.562Z,8.80
2018-07-13T03:43:20.082Z,7.67
2018-07-13T03:45:48.577Z,8.40
2018-07-13T03:48:17.087Z,9.57
2018-07-13T03:50:45.522Z,10.33
2018-07-13T03:53:14.005Z,11.63
2018-07-13T03:55:42.439Z,14.50
2018-07-13T03:58:10.908Z,13.70
2018-07-13T04:00:39.537Z,15.70
2018-07-13T04:03:13.165Z,11.13
2018-07-13T04:05:41.658Z,11.03
2018-07-13T04:08:10.644Z,11.27
2018-07-13T04:10:39.228Z,12.00
2018-07-13T04:13:07.768Z,13.00
2018-07-13T04:15:36.949Z,11.37
2018-07-13T04:18:05.971Z,11.37
2018-07-13T04:20:34.759Z,12.53
2018-07-13T04:23:03.229Z,16.93
2018-07-13T04:25:31.808Z,17.37
2018-07-13T04:28:00.372Z,14.27
2018-07-13T04:30:28.976Z,14.47
2018-07-13T04:32:57.560Z,14.07
2018-07-13T04:35:26.194Z,13.83
2018-07-13T04:37:54.893Z,10.80
2018-07-13T04:40:23.481Z,11.17
2018-07-13T04:42:51.953Z,9.70
2018-07-13T04:45:20.464Z,15.50
2018-07-13T04:47:49.039Z,14.47
2018-07-13T04:50:17.557Z,14.07
2018-07-13T04:52:46.379Z,17.00
2018-07-13T04:55:14.903Z,17.43
2018-07-13T04:57:43.961Z,17.13
2018-07-13T05:00:12.465Z,15.77
2018-07-13T05:02:41.176Z,15.53
2018-07-13T05:05:10.031Z,15.80
2018-07-13T05:07:39.406Z,15.97
2018-07-13T05:10:08.212Z,16.07
2018-07-13T05:12:37.109Z,16.70
2018-07-13T05:15:06.509Z,15.53
2018-07-13T05:17:35.090Z,15.47
2018-07-13T05:20:05.067Z,17.20
2018-07-13T05:22:34.031Z,16.30
2018-07-13T05:25:02.651Z,16.70
2018-07-13T05:27:31.376Z,15.20
2018-07-13T05:30:00.477Z,15.00
2018-07-13T05:32:29.001Z,15.13
2018-07-13T05:34:58.621Z,15.87
2018-07-13T05:37:27.566Z,14.37
2018-07-13T05:39:56.694Z,14.90
2018-07-13T05:42:25.756Z,12.80
2018-07-13T05:44:54.476Z,12.00
2018-07-13T05:47:22.962Z,12.23
2018-07-13T05:49:51.735Z,11.87
2018-07-13T05:52:20.329Z,11.27
2018-07-13T05:54:48.989Z,11.57
2018-07-13T05:57:17.613Z,11.33
2018-07-13T05:59:46.183Z,12.00
2018-07-13T06:02:14.760Z,11.80
2018-07-13T06:04:43.354Z,12.57
2018-07-13T06:07:11.934Z,11.30
2018-07-13T06:09:40.549Z,11.27
2018-07-13T06:12:09.346Z,11.37
2018-07-13T06:14:38.183Z,11.77
2018-07-13T06:17:06.759Z,12.10
2018-07-13T06:19:35.413Z,11.57
2018-07-13T06:22:03.945Z,11.70
2018-07-13T06:24:32.567Z,11.80
2018-07-13T06:27:26.071Z,12.33
2018-07-13T06:29:54.598Z,11.43
2018-07-13T06:32:24.180Z,12.20
2018-07-13T06:34:52.772Z,11.37
2018-07-13T06:37:21.225Z,11.37
2018-07-13T06:39:49.669Z,12.63
2018-07-13T06:42:18.235Z,12.03
2018-07-13T06:44:46.737Z,10.93
2018-07-13T06:47:15.172Z,12.43
2018-07-13T06:49:43.754Z,12.47
2018-07-13T06:52:12.292Z,12.03
2018-07-13T06:54:40.766Z,11.83
2018-07-13T06:57:09.971Z,10.43
2018-07-13T06:59:38.469Z,10.63
2018-07-13T07:02:07.312Z,9.77
2018-07-13T07:04:38.810Z,11.30
2018-07-13T07:07:11.491Z,9.80
2018-07-13T07:09:42.059Z,9.73
2018-07-13T07:12:18.828Z,9.93
2018-07-13T07:14:47.304Z,8.80
2018-07-13T07:17:15.809Z,9.13
2018-07-13T07:19:44.413Z,8.83
2018-07-13T07:22:13.877Z,8.53
2018-07-13T07:24:42.460Z,10.17
2018-07-13T07:27:10.959Z,9.03
2018-07-13T07:29:39.496Z,8.30
2018-07-13T07:32:08.010Z,9.50
2018-07-13T07:34:36.497Z,8.13
2018-07-13T07:37:07.114Z,8.37
2018-07-13T07:39:35.533Z,6.67
2018-07-13T07:42:04.111Z,8.60
2018-07-13T07:44:32.690Z,7.70
2018-07-13T07:47:01.244Z,7.33
2018-07-13T07:49:29.781Z,7.87
2018-07-13T07:51:58.723Z,6.47
2018-07-13T07:54:27.304Z,7.30
2018-07-13T07:56:55.812Z,8.10
2018-07-13T07:59:24.354Z,7.63
2018-07-13T08:01:52.850Z,7.77
2018-07-13T08:04:21.378Z,6.87
2018-07-13T08:06:50.223Z,6.73
2018-07-13T08:09:18.464Z,6.53
2018-07-13T08:11:47.123Z,6.00
2018-07-13T08:14:15.943Z,6.77
2018-07-13T08:16:44.245Z,7.00
2018-07-13T08:19:12.900Z,6.90
2018-07-13T08:21:44.523Z,7.33
2018-07-13T08:24:18.398Z,6.63
2018-07-13T08:26:47.324Z,6.10
2018-07-13T08:29:17.053Z,5.27
2018-07-13T08:31:45.603Z,6.00
2018-07-13T08:34:14.089Z,6.47
2018-07-13T08:36:42.703Z,6.37
2018-07-13T08:39:11.281Z,5.70
2018-07-13T08:41:39.866Z,5.40
2018-07-13T08:44:08.503Z,4.43
2018-07-13T08:46:36.985Z,5.13
2018-07-13T08:49:05.605Z,5.57
2018-07-13T08:51:34.234Z,5.10
2018-07-13T08:54:02.790Z,5.13
2018-07-13T08:56:31.356Z,5.37
2018-07-13T08:58:59.949Z,4.60
2018-07-13T09:01:28.443Z,5.17
2018-07-13T09:03:57.076Z,4.97
2018-07-13T09:06:25.627Z,4.53
2018-07-13T09:08:54.044Z,4.23
2018-07-13T09:11:22.632Z,5.00
2018-07-13T09:13:51.642Z,4.57
2018-07-13T09:16:20.436Z,4.77
2018-07-13T09:18:48.938Z,4.63
2018-07-13T09:21:17.405Z,5.07
2018-07-13T09:23:45.961Z,3.67
2018-07-13T09:26:14.539Z,4.40
2018-07-13T09:28:43.025Z,4.40
2018-07-13T09:31:11.729Z,4.40
2018-07-13T09:33:40.327Z,4.20
2018-07-13T09:36:08.942Z,4.63
2018-07-13T09:38:37.391Z,3.80
2018-07-13T09:41:14.187Z,4.40
2018-07-13T09:43:42.806Z,4.13
2018-07-13T09:46:13.855Z,4.23
2018-07-13T09:48:46.923Z,4.67
2018-07-13T09:51:15.457Z,3.47
2018-07-13T09:53:44.146Z,4.20
2018-07-13T09:56:13.756Z,3.40
2018-07-13T09:58:42.191Z,4.30
2018-07-13T10:01:15.868Z,4.90
2018-07-13T10:03:44.398Z,5.10
2018-07-13T10:06:13.000Z,4.20
2018-07-13T10:08:41.793Z,4.53
2018-07-13T10:11:10.393Z,3.30
2018-07-13T10:13:38.970Z,3.93
2018-07-13T10:16:07.485Z,4.20
2018-07-13T10:18:36.192Z,3.90
2018-07-13T10:21:06.954Z,3.80
2018-07-13T10:23:35.572Z,5.10
2018-07-13T10:26:07.694Z,3.37
2018-07-13T10:28:38.840Z,4.80
2018-07-13T10:31:08.145Z,3.87
2018-07-13T10:33:37.950Z,4.03
2018-07-13T10:36:08.331Z,3.80
2018-07-13T10:38:36.860Z,4.63
2018-07-13T10:41:05.357Z,3.30
2018-07-13T10:43:34.065Z,3.63
2018-07-13T10:46:02.661Z,3.60
2018-07-13T10:48:31.151Z,4.10
2018-07-13T10:50:59.575Z,5.53
2018-07-13T10:53:28.152Z,4.87
2018-07-13T10:55:56.635Z,8.77
2018-07-13T10:58:25.144Z,3.70
2018-07-13T11:00:53.810Z,3.63
2018-07-13T11:03:22.289Z,4.43
2018-07-13T11:05:50.724Z,3.87
2018-07-13T11:08:19.285Z,3.13
2018-07-13T11:10:48.817Z,3.03
2018-07-13T11:13:17.468Z,5.03
2018-07-13T11:15:46.014Z,5.03
2018-07-13T11:18:14.502Z,3.20
2018-07-13T11:20:43.028Z,3.00
2018-07-13T11:23:11.671Z,7.17
2018-07-13T11:25:40.147Z,3.33
2018-07-13T11:28:20.749Z,4.00
2018-07-13T11:33:55.777Z,3.37
2018-07-13T11:36:24.274Z,2.70
2018-07-13T11:38:52.754Z,3.00
2018-07-13T11:41:21.342Z,3.37
2018-07-13T11:43:50.343Z,3.10
2018-07-13T11:46:18.885Z,3.17
2018-07-13T11:48:47.360Z,2.90
2018-07-13T11:51:15.838Z,3.00
2018-07-13T11:53:44.319Z,3.20
2018-07-13T11:56:12.797Z,2.77
2018-07-13T11:58:41.475Z,3.17
2018-07-13T12:01:09.964Z,3.40
2018-07-13T12:03:38.403Z,3.20
2018-07-13T12:06:06.866Z,2.83
2018-07-13T12:08:35.366Z,3.53
2018-07-13T12:11:03.910Z,2.90
2018-07-13T12:13:32.396Z,2.93
2018-07-13T12:16:00.858Z,2.77
2018-07-13T12:18:29.341Z,2.67
2018-07-13T12:20:57.836Z,2.87
2018-07-13T12:23:26.320Z,2.90
2018-07-13T12:25:54.927Z,2.87
2018-07-13T12:28:23.688Z,2.90
2018-07-13T12:30:52.210Z,2.60
2018-07-13T12:33:20.717Z,2.40
2018-07-13T12:35:49.150Z,2.13
2018-07-13T12:38:17.600Z,2.47
2018-07-13T12:40:46.053Z,2.70
2018-07-13T12:43:14.549Z,2.73
2018-07-13T12:45:43.042Z,2.20
2018-07-13T12:48:11.603Z,2.20
2018-07-13T12:50:40.041Z,3.30
2018-07-13T12:53:08.587Z,3.30
2018-07-13T12:55:37.288Z,2.43
2018-07-13T12:58:06.424Z,2.90
2018-07-13T13:00:35.625Z,2.47
2018-07-13T13:03:04.880Z,3.17
2018-07-13T13:05:33.395Z,2.27
2018-07-13T13:08:01.918Z,2.80
2018-07-13T13:10:31.227Z,2.60
2018-07-13T13:13:00.177Z,3.10
2018-07-13T13:15:28.693Z,2.57
2018-07-13T13:17:57.187Z,2.63
2018-07-13T13:20:25.641Z,2.60
2018-07-13T13:22:54.084Z,2.70
2018-07-13T13:25:22.951Z,2.60
2018-07-13T13:27:51.789Z,3.00
2018-07-13T13:30:20.300Z,3.20
2018-07-13T13:32:49.039Z,3.00
2018-07-13T13:35:18.191Z,3.00
2018-07-13T13:37:47.312Z,2.77
2018-07-13T13:40:16.080Z,2.80
2018-07-13T13:42:44.992Z,2.60
2018-07-13T13:45:14.391Z,2.30
2018-07-13T13:47:43.021Z,2.90
2018-07-13T13:50:11.790Z,3.40
2018-07-13T13:52:42.275Z,3.00
2018-07-13T13:55:10.845Z,2.63
2018-07-13T13:57:41.888Z,2.63
2018-07-13T14:00:11.386Z,2.97
2018-07-13T14:02:40.279Z,2.80
2018-07-13T14:05:09.019Z,2.70
2018-07-13T14:07:37.565Z,2.50
2018-07-13T14:10:06.436Z,2.63
2018-07-13T14:12:34.894Z,2.83
2018-07-13T14:15:03.522Z,2.50
2018-07-13T14:17:32.029Z,2.70
2018-07-13T14:20:00.662Z,3.00
2018-07-13T14:22:29.116Z,3.30
2018-07-13T14:24:57.556Z,3.23
2018-07-13T14:27:26.024Z,2.63
2018-07-13T14:29:54.442Z,3.03
2018-07-13T14:32:22.904Z,2.73
2018-07-13T14:34:51.473Z,3.67
2018-07-13T14:37:19.901Z,2.63
2018-07-13T14:39:48.433Z,3.00
2018-07-13T14:42:17.005Z,2.80
2018-07-13T14:44:45.589Z,2.90
2018-07-13T14:47:14.199Z,2.50
2018-07-13T14:49:42.517Z,2.57
2018-07-13T14:52:11.024Z,2.30
2018-07-13T14:54:39.447Z,2.47
2018-07-13T14:57:07.989Z,2.60
2018-07-13T14:59:36.703Z,2.80
2018-07-13T15:02:05.242Z,2.50
2018-07-13T15:04:33.730Z,2.30
2018-07-13T15:07:02.306Z,3.07
2018-07-13T15:09:30.776Z,2.20
2018-07-13T15:11:59.270Z,3.33
2018-07-13T15:14:27.733Z,2.70
2018-07-13T15:16:56.177Z,2.37
2018-07-13T15:19:25.019Z,2.57
2018-07-13T15:21:53.558Z,2.37
2018-07-13T15:24:21.987Z,2.37
2018-07-13T15:26:51.381Z,2.73
2018-07-13T15:29:19.874Z,2.90
2018-07-13T15:31:48.484Z,2.90
2018-07-13T15:34:17.044Z,2.40
2018-07-13T15:36:45.773Z,2.33
2018-07-13T15:39:14.305Z,2.63
2018-07-13T15:41:42.780Z,2.60
2018-07-13T15:44:11.302Z,2.70
2018-07-13T15:46:39.824Z,2.77
2018-07-13T15:49:08.356Z,2.47
2018-07-13T15:51:37.039Z,2.47
2018-07-13T15:54:05.743Z,2.20
2018-07-13T15:56:34.413Z,2.73
2018-07-13T15:59:02.877Z,2.37
2018-07-13T16:01:31.351Z,2.60
2018-07-13T16:03:59.791Z,2.83
2018-07-13T16:06:28.251Z,2.30
2018-07-13T16:08:56.805Z,2.97
2018-07-13T16:11:25.266Z,2.50
2018-07-13T16:13:53.771Z,2.80
2018-07-13T16:16:22.448Z,2.63
2018-07-13T16:18:50.901Z,2.67
2018-07-13T16:21:19.438Z,2.30
2018-07-13T16:23:47.989Z,2.43
2018-07-13T16:26:16.564Z,2.73
2018-07-13T16:28:45.035Z,2.70
2018-07-13T16:31:13.550Z,2.80
2018-07-13T16:33:42.136Z,2.80
2018-07-13T16:36:10.603Z,2.90
2018-07-13T16:38:39.284Z,2.83
2018-07-13T16:41:07.781Z,2.63
2018-07-13T16:43:36.353Z,2.77
2018-07-13T16:46:04.967Z,2.70
2018-07-13T16:48:33.612Z,3.03
2018-07-13T16:51:07.026Z,2.50
2018-07-13T16:53:35.737Z,3.03
2018-07-13T16:56:04.489Z,2.20
2018-07-13T16:58:32.960Z,2.70
2018-07-13T17:01:01.500Z,2.53
2018-07-13T17:03:29.987Z,3.10
2018-07-13T17:05:58.571Z,2.97
2018-07-13T17:08:27.069Z,2.90
2018-07-13T17:10:55.565Z,2.70
2018-07-13T17:13:24.057Z,2.90
2018-07-13T17:15:52.571Z,3.00
2018-07-13T17:18:21.100Z,3.07
2018-07-13T17:20:49.695Z,2.60
2018-07-13T17:23:18.197Z,3.13
2018-07-13T17:25:46.705Z,3.00
2018-07-13T17:28:15.245Z,2.67
2018-07-13T17:30:43.741Z,3.37
2018-07-13T17:33:12.531Z,2.80
2018-07-13T17:35:41.702Z,2.63
2018-07-13T17:38:10.290Z,2.70
2018-07-13T17:40:38.755Z,2.67
2018-07-13T17:43:07.326Z,2.80
2018-07-13T17:45:36.333Z,2.67
2018-07-13T17:48:05.450Z,2.97
2018-07-13T17:50:33.908Z,2.73
2018-07-13T17:53:02.556Z,3.87
2018-07-13T17:55:31.106Z,3.20
2018-07-13T17:58:00.202Z,3.37
2018-07-13T18:00:28.685Z,2.97
2018-07-13T18:02:57.157Z,3.33
2018-07-13T18:05:26.149Z,3.37
2018-07-13T18:07:54.745Z,3.00
2018-07-13T18:10:23.200Z,3.30
2018-07-13T18:12:52.285Z,3.50
2018-07-13T18:15:20.949Z,3.50
2018-07-13T18:17:49.494Z,3.07
2018-07-13T18:20:18.622Z,4.87
2018-07-13T18:22:47.320Z,4.50
2018-07-13T18:25:15.805Z,4.70
2018-07-13T18:27:44.321Z,3.57
2018-07-13T18:30:13.505Z,4.70
2018-07-13T18:32:42.015Z,3.73
2018-07-13T18:35:10.498Z,3.63
2018-07-13T18:37:39.508Z,4.80
2018-07-13T18:40:08.246Z,3.90
2018-07-13T18:42:37.651Z,4.27
2018-07-13T18:45:06.201Z,5.90
2018-07-13T18:47:34.751Z,7.03
2018-07-13T18:50:04.365Z,5.50
2018-07-13T18:52:32.960Z,4.20
2018-07-13T18:55:01.536Z,4.97
2018-07-13T18:57:31.216Z,4.50
2018-07-13T18:59:59.681Z,5.33
2018-07-13T19:02:28.195Z,4.60
2018-07-13T19:04:56.629Z,3.90
2018-07-13T19:07:25.499Z,3.07
2018-07-13T19:09:53.885Z,4.10
2018-07-13T19:12:22.429Z,3.30
2018-07-13T19:14:50.937Z,4.00
2018-07-13T19:17:19.605Z,3.10
2018-07-13T19:19:48.230Z,3.93
2018-07-13T19:22:16.800Z,3.17
2018-07-13T19:24:47.716Z,3.33
2018-07-13T19:27:16.694Z,2.93
2018-07-13T19:29:45.170Z,3.23
2018-07-13T19:32:13.631Z,4.17
2018-07-13T19:34:42.069Z,3.63
2018-07-13T19:37:10.663Z,3.60
2018-07-13T19:39:39.217Z,3.20
2018-07-13T19:42:07.733Z,3.90
2018-07-13T19:44:36.280Z,3.30
2018-07-13T19:47:05.133Z,3.47
2018-07-13T19:49:35.832Z,3.53
2018-07-13T19:52:04.514Z,3.73
2018-07-13T19:54:33.076Z,3.30
2018-07-13T19:57:01.734Z,4.00
2018-07-13T19:59:30.145Z,2.87
2018-07-13T20:01:58.723Z,4.13
2018-07-13T20:04:27.223Z,2.80
2018-07-13T20:06:55.783Z,3.30
2018-07-13T20:09:24.446Z,3.70
2018-07-13T20:11:53.182Z,4.27
2018-07-13T20:14:21.954Z,3.20
2018-07-13T20:16:50.578Z,4.37
2018-07-13T20:19:19.205Z,2.97
2018-07-13T20:21:47.977Z,4.03
2018-07-13T20:24:43.296Z,3.73
2018-07-13T20:27:11.959Z,4.40
2018-07-13T20:29:40.678Z,4.60
2018-07-13T20:32:09.292Z,3.23
2018-07-13T20:34:37.882Z,4.20
2018-07-13T20:37:06.685Z,3.60
2018-07-13T20:39:35.443Z,4.13
2018-07-13T20:42:04.093Z,3.87
2018-07-13T20:44:32.537Z,4.27
2018-07-13T20:47:01.089Z,4.60
2018-07-13T20:49:29.811Z,4.33
2018-07-13T20:51:58.488Z,3.90
2018-07-13T20:54:27.052Z,4.57
2018-07-13T20:56:55.645Z,3.40
2018-07-13T20:59:24.229Z,4.90
2018-07-13T21:01:52.842Z,4.80
2018-07-13T21:04:21.368Z,3.73
2018-07-13T21:06:49.908Z,5.27
2018-07-13T21:09:18.502Z,5.00
2018-07-13T21:11:47.048Z,3.90
2018-07-13T21:14:15.624Z,4.47
2018-07-13T21:16:44.147Z,4.23
2018-07-13T21:19:12.861Z,4.80
2018-07-13T21:21:41.510Z,4.87
2018-07-13T21:24:10.157Z,4.43
2018-07-13T21:26:38.965Z,5.47
2018-07-13T21:29:07.672Z,4.70
2018-07-13T21:31:36.380Z,4.37
2018-07-13T21:34:04.926Z,4.20
2018-07-13T21:36:33.531Z,5.30
2018-07-13T21:39:02.161Z,3.80
2018-07-13T21:41:30.797Z,5.03
2018-07-13T21:43:59.557Z,5.07
2018-07-13T21:46:28.370Z,5.03
2018-07-13T21:48:57.011Z,4.43
2018-07-13T21:51:25.616Z,5.63
2018-07-13T21:53:54.501Z,5.03
2018-07-13T21:56:23.179Z,5.13
2018-07-13T21:58:51.781Z,5.40
2018-07-13T22:01:20.426Z,5.17
2018-07-13T22:03:48.957Z,5.20
2018-07-13T22:06:17.529Z,5.90
2018-07-13T22:08:46.211Z,5.13
2018-07-13T22:11:14.892Z,5.53
2018-07-13T22:13:43.379Z,5.23
2018-07-13T22:16:12.045Z,5.47
2018-07-13T22:18:40.453Z,6.10
2018-07-13T22:21:09.116Z,6.47
2018-07-13T22:23:37.644Z,6.00
2018-07-13T22:26:06.179Z,5.67
2018-07-13T22:28:34.702Z,5.97
2018-07-13T22:31:03.454Z,5.90
2018-07-13T22:33:32.523Z,5.93
2018-07-13T22:36:01.024Z,5.37
2018-07-13T22:38:29.513Z,5.33
2018-07-13T22:40:58.213Z,6.20
2018-07-13T22:43:27.005Z,5.70
2018-07-13T22:45:55.681Z,5.23
2018-07-13T22:48:24.211Z,5.83
2018-07-13T22:50:52.863Z,6.37
2018-07-13T22:53:21.552Z,5.83
2018-07-13T22:55:50.122Z,5.53
2018-07-13T22:58:18.744Z,6.60
2018-07-13T23:00:47.790Z,6.30
2018-07-13T23:03:16.463Z,6.20
2018-07-13T23:05:44.882Z,5.83
2018-07-13T23:08:13.412Z,6.23
2018-07-13T23:10:42.029Z,6.37
2018-07-13T23:13:10.616Z,6.37
2018-07-13T23:15:39.110Z,7.17
2018-07-13T23:18:07.876Z,6.30
2018-07-13T23:20:36.370Z,6.67
2018-07-13T23:23:28.697Z,6.83
2018-07-13T23:25:57.225Z,6.90
2018-07-13T23:28:25.767Z,6.03
2018-07-13T23:30:54.349Z,7.43
2018-07-13T23:33:22.834Z,6.33
2018-07-13T23:35:51.324Z,7.10
2018-07-13T23:38:19.846Z,6.80
2018-07-13T23:40:48.377Z,6.93
2018-07-13T23:43:17.071Z,7.50
2018-07-13T23:45:45.553Z,7.20
2018-07-13T23:48:13.970Z,6.87
2018-07-13T23:50:42.510Z,7.63
2018-07-13T23:53:11.040Z,7.07
2018-07-13T23:55:39.579Z,7.33
2018-07-13T23:58:08.113Z,7.80
